createdAt,value
2022-10-22T00:02:42.796Z,7.41
2022-10-22T00:05:15.820Z,7.39
2022-10-22T00:08:02.753Z,7.37
2022-10-22T00:10:42.734Z,7.34
2022-10-22T00:13:29.732Z,7.30
2022-10-22T00:16:02.825Z,7.24
2022-10-22T00:18:49.763Z,7.21
2022-10-22T00:21:29.742Z,7.18
2022-10-22T00:24:23.746Z,7.13
2022-10-22T00:27:18.734Z,7.06
2022-10-22T00:30:05.740Z,6.99
2022-10-22T00:32:39.085Z,6.95
2022-10-22T00:35:25.753Z,6.95
2022-10-22T00:37:58.812Z,6.94
2022-10-22T00:40:45.769Z,6.90
2022-10-22T00:43:20.827Z,6.88
2022-10-22T00:46:07.753Z,6.85
2022-10-22T00:48:40.832Z,6.83
2022-10-22T00:51:29.770Z,6.84
2022-10-22T00:54:10.035Z,6.85
2022-10-22T00:56:56.770Z,6.86
2022-10-22T00:59:29.819Z,6.84
2022-10-22T01:02:16.768Z,6.83
2022-10-22T01:04:49.846Z,6.85
2022-10-22T01:07:36.800Z,6.84
2022-10-22T01:10:22.854Z,6.84
2022-10-22T01:13:38.775Z,6.85
2022-10-22T01:17:06.761Z,6.87
2022-10-22T01:20:07.787Z,6.87
2022-10-22T01:23:19.774Z,6.85
2022-10-22T01:26:19.844Z,6.83
2022-10-22T01:29:31.769Z,6.82
2022-10-22T01:32:22.755Z,6.82
2022-10-22T01:35:20.807Z,6.81
2022-10-22T01:38:12.771Z,6.78
2022-10-22T01:40:45.853Z,6.78
2022-10-22T01:43:32.776Z,6.79
2022-10-22T01:46:15.793Z,6.78
2022-10-22T01:49:23.788Z,6.75
2022-10-22T01:52:28.792Z,6.72
2022-10-22T01:55:55.785Z,6.67
2022-10-22T01:59:00.788Z,6.64
2022-10-22T02:02:11.784Z,6.60
2022-10-22T02:05:20.788Z,6.53
2022-10-22T02:08:27.784Z,6.51
2022-10-22T02:11:21.772Z,6.51
2022-10-22T02:14:11.779Z,6.49
2022-10-22T02:16:58.796Z,6.46
2022-10-22T02:20:05.784Z,6.44
2022-10-22T02:23:00.779Z,6.41
2022-10-22T02:25:51.791Z,6.41
2022-10-22T02:28:45.800Z,6.39
2022-10-22T02:31:47.800Z,6.37
2022-10-22T02:34:38.804Z,6.35
2022-10-22T02:37:13.860Z,6.33
2022-10-22T02:40:02.821Z,6.35
2022-10-22T02:42:37.289Z,6.36
2022-10-22T02:45:24.819Z,6.35
2022-10-22T02:47:58.870Z,6.34
2022-10-22T02:50:45.816Z,6.34
2022-10-22T02:53:18.871Z,6.34
2022-10-22T02:55:58.787Z,6.32
2022-10-22T02:58:38.898Z,6.30
2022-10-22T03:01:18.855Z,6.28
2022-10-22T03:03:58.879Z,6.27
2022-10-22T03:06:38.822Z,6.25
2022-10-22T03:09:21.375Z,6.24
2022-10-22T03:11:57.881Z,6.22
2022-10-22T03:14:44.809Z,6.18
2022-10-22T03:17:17.887Z,6.15
2022-10-22T03:20:04.810Z,6.10
2022-10-22T03:22:46.794Z,6.09
2022-10-22T03:25:34.811Z,6.09
2022-10-22T03:28:20.804Z,6.05
2022-10-22T03:31:07.815Z,6.02
2022-10-22T03:33:47.811Z,5.98
2022-10-22T03:36:41.838Z,5.95
2022-10-22T03:39:29.819Z,5.93
2022-10-22T03:42:09.824Z,5.91
2022-10-22T03:45:03.831Z,5.90
2022-10-22T03:47:50.806Z,5.89
2022-10-22T03:50:23.896Z,5.89
2022-10-22T03:53:10.826Z,5.88
2022-10-22T03:55:44.931Z,5.85
2022-10-22T03:58:31.842Z,5.84
2022-10-22T04:01:10.960Z,5.81
2022-10-22T04:03:57.846Z,5.76
2022-10-22T04:06:37.819Z,5.75
2022-10-22T04:09:24.846Z,5.72
2022-10-22T04:11:57.941Z,5.71
2022-10-22T04:14:44.834Z,5.68
2022-10-22T04:17:17.912Z,5.64
2022-10-22T04:20:04.861Z,5.61
2022-10-22T04:22:40.964Z,5.58
2022-10-22T04:25:27.856Z,5.54
2022-10-22T04:28:00.902Z,5.50
2022-10-22T04:30:47.839Z,5.49
2022-10-22T04:33:20.895Z,5.41
2022-10-22T04:36:07.864Z,5.35
2022-10-22T04:38:47.838Z,5.31
2022-10-22T04:41:46.858Z,5.28
2022-10-22T04:44:33.852Z,5.22
2022-10-22T04:47:06.921Z,5.21
2022-10-22T04:49:53.843Z,5.17
2022-10-22T04:52:33.845Z,5.11
2022-10-22T04:55:20.904Z,5.10
2022-10-22T04:58:00.848Z,5.08
2022-10-22T05:00:54.905Z,5.05
2022-10-22T05:03:48.867Z,5.00
2022-10-22T05:06:37.859Z,4.98
2022-10-22T05:09:21.905Z,4.99
2022-10-22T05:12:08.851Z,4.99
2022-10-22T05:14:44.090Z,5.00
2022-10-22T05:17:31.853Z,5.02
2022-10-22T05:20:04.919Z,5.03
2022-10-22T05:22:51.870Z,5.07
2022-10-22T05:25:31.871Z,5.11
2022-10-22T05:28:25.863Z,5.11
2022-10-22T05:31:14.865Z,5.12
2022-10-22T05:33:49.010Z,5.13
2022-10-22T05:36:35.877Z,5.15
2022-10-22T05:39:08.940Z,5.16
2022-10-22T05:41:55.873Z,5.18
2022-10-22T05:44:28.947Z,5.19
2022-10-22T05:47:16.883Z,5.21
2022-10-22T05:49:56.895Z,5.23
2022-10-22T05:52:50.876Z,5.25
2022-10-22T05:55:48.898Z,5.27
2022-10-22T05:58:35.863Z,5.30
2022-10-22T06:01:21.875Z,5.34
2022-10-22T06:04:10.883Z,5.39
2022-10-22T06:07:00.891Z,5.44
2022-10-22T06:09:56.882Z,5.49
2022-10-22T06:12:43.907Z,5.57
2022-10-22T06:15:20.492Z,5.63
2022-10-22T06:18:06.882Z,5.67
2022-10-22T06:20:43.201Z,5.68
2022-10-22T06:23:29.887Z,5.71
2022-10-22T06:26:11.907Z,5.70
2022-10-22T06:29:05.889Z,5.72
2022-10-22T06:31:52.867Z,5.77
2022-10-22T06:34:26.104Z,5.81
2022-10-22T06:37:12.882Z,5.85
2022-10-22T06:39:46.049Z,5.89
2022-10-22T06:42:33.885Z,5.92
2022-10-22T06:45:13.908Z,5.93
2022-10-22T06:48:01.910Z,5.96
2022-10-22T06:50:35.007Z,6.01
2022-10-22T06:53:21.897Z,6.06
2022-10-22T06:55:54.982Z,6.12
2022-10-22T06:58:42.907Z,6.18
2022-10-22T07:01:28.955Z,6.26
2022-10-22T07:04:16.887Z,6.35
2022-10-22T07:06:56.913Z,6.43
2022-10-22T07:09:52.907Z,6.53
2022-10-22T07:12:47.911Z,6.60
2022-10-22T07:15:34.903Z,6.64
2022-10-22T07:18:14.936Z,6.69
2022-10-22T07:21:08.918Z,6.76
2022-10-22T07:23:55.897Z,6.86
2022-10-22T07:26:33.026Z,6.95
2022-10-22T07:29:21.911Z,7.06
2022-10-22T07:31:55.005Z,7.15
2022-10-22T07:34:48.924Z,7.20
2022-10-22T07:37:43.149Z,7.24
2022-10-22T07:40:29.921Z,7.27
2022-10-22T07:43:09.904Z,7.32
2022-10-22T07:46:03.926Z,7.42
2022-10-22T07:48:50.906Z,7.54
2022-10-22T07:51:30.942Z,7.63
2022-10-22T07:54:17.920Z,7.71
2022-10-22T07:56:57.926Z,7.81
2022-10-22T07:59:51.919Z,7.86
2022-10-22T08:02:39.260Z,7.90
2022-10-22T08:05:19.938Z,7.93
2022-10-22T08:08:06.952Z,7.96
2022-10-22T08:10:47.947Z,8.00
2022-10-22T08:13:39.459Z,8.04
2022-10-22T08:16:15.089Z,8.08
2022-10-22T08:19:01.936Z,8.14
2022-10-22T08:21:42.928Z,8.20
2022-10-22T08:24:36.951Z,8.26
2022-10-22T08:27:23.942Z,8.32
2022-10-22T08:29:57.011Z,8.37
2022-10-22T08:32:43.939Z,8.48
2022-10-22T08:35:18.003Z,8.53
2022-10-22T08:38:04.953Z,8.61
2022-10-22T08:40:40.306Z,8.70
2022-10-22T08:44:02.964Z,8.82
2022-10-22T08:47:18.649Z,8.95
2022-10-22T08:50:08.974Z,9.03
2022-10-22T08:52:44.027Z,9.11
2022-10-22T08:55:36.487Z,9.18
2022-10-22T08:58:46.965Z,9.28
2022-10-22T09:01:56.964Z,9.44
2022-10-22T09:04:51.962Z,9.57
2022-10-22T09:07:25.023Z,9.67
2022-10-22T09:10:11.966Z,9.78
2022-10-22T09:12:51.965Z,9.85
2022-10-22T09:15:47.360Z,9.95
2022-10-22T09:18:47.952Z,10.01
2022-10-22T09:21:31.039Z,10.10
2022-10-22T09:24:40.954Z,10.18
2022-10-22T09:27:23.834Z,10.25
2022-10-22T09:30:10.960Z,10.29
2022-10-22T09:32:44.247Z,10.33
2022-10-22T09:35:37.979Z,10.37
2022-10-22T09:38:39.959Z,10.39
2022-10-22T09:41:38.103Z,10.40
2022-10-22T09:44:26.003Z,10.42
2022-10-22T09:46:59.029Z,10.46
2022-10-22T09:49:45.987Z,10.49
2022-10-22T09:52:44.162Z,10.49
2022-10-22T09:55:38.992Z,10.53
2022-10-22T09:58:26.975Z,10.55
2022-10-22T10:01:05.056Z,10.57
2022-10-22T10:03:51.981Z,10.58
2022-10-22T10:06:34.994Z,10.58
2022-10-22T10:09:30.996Z,10.57
2022-10-22T10:12:48.981Z,10.53
2022-10-22T10:15:39.105Z,10.52
2022-10-22T10:18:34.977Z,10.52
2022-10-22T10:21:33.066Z,10.52
2022-10-22T10:24:41.004Z,10.53
2022-10-22T10:27:49.987Z,10.54
2022-10-22T10:30:45.991Z,10.61
2022-10-22T10:33:54.998Z,10.66
2022-10-22T10:37:23.000Z,10.69
2022-10-22T10:40:26.019Z,10.70
2022-10-22T10:43:31.996Z,10.74
2022-10-22T10:46:23.575Z,10.78
2022-10-22T10:49:17.008Z,10.83
2022-10-22T10:51:58.101Z,10.87
2022-10-22T10:55:20.034Z,10.93
2022-10-22T10:58:04.151Z,10.96
2022-10-22T11:01:03.150Z,11.01
2022-10-22T11:04:16.085Z,11.04
2022-10-22T11:07:11.663Z,11.08
2022-10-22T11:10:16.109Z,11.10
2022-10-22T11:13:27.031Z,11.12
2022-10-22T11:16:25.013Z,11.14
2022-10-22T11:19:51.543Z,11.16
2022-10-22T11:23:13.161Z,11.18
2022-10-22T11:26:03.030Z,11.17
2022-10-22T11:29:07.007Z,11.16
2022-10-22T11:32:02.033Z,11.14
2022-10-22T11:35:13.013Z,11.12
2022-10-22T11:38:03.032Z,11.12
2022-10-22T11:40:36.164Z,11.10
2022-10-22T11:43:58.031Z,11.10
2022-10-22T11:46:50.107Z,11.10
2022-10-22T11:49:51.035Z,11.10
2022-10-22T11:52:39.577Z,11.10
2022-10-22T11:55:58.044Z,11.10
2022-10-22T11:58:54.983Z,11.08
2022-10-22T12:01:57.020Z,11.05
2022-10-22T12:04:49.088Z,11.05
2022-10-22T12:07:49.048Z,11.03
2022-10-22T12:11:12.063Z,11.01
2022-10-22T12:14:10.036Z,10.99
2022-10-22T12:17:10.061Z,10.98
2022-10-22T12:20:06.035Z,10.98
2022-10-22T12:22:48.045Z,10.99
2022-10-22T12:25:46.040Z,10.99
2022-10-22T12:28:33.050Z,11.00
2022-10-22T12:31:06.124Z,10.99
2022-10-22T12:33:53.047Z,10.99
2022-10-22T12:36:33.071Z,10.99
2022-10-22T12:39:23.073Z,11.02
2022-10-22T12:42:03.040Z,11.02
2022-10-22T12:44:51.067Z,11.02
2022-10-22T12:47:25.142Z,11.00
2022-10-22T12:50:12.066Z,10.99
2022-10-22T12:52:45.137Z,10.97
2022-10-22T12:55:33.051Z,10.95
2022-10-22T12:58:13.105Z,10.95
2022-10-22T13:01:05.101Z,10.93
2022-10-22T13:03:51.073Z,10.90
2022-10-22T13:06:48.061Z,10.86
2022-10-22T13:10:07.084Z,10.84
2022-10-22T13:12:44.129Z,10.82
2022-10-22T13:15:34.070Z,10.80
2022-10-22T13:18:21.207Z,10.77
2022-10-22T13:21:10.065Z,10.76
2022-10-22T13:23:43.148Z,10.75
2022-10-22T13:26:36.060Z,10.74
2022-10-22T13:29:17.171Z,10.72
2022-10-22T13:32:04.093Z,10.70
2022-10-22T13:34:40.710Z,10.68
2022-10-22T13:37:27.080Z,10.67
2022-10-22T13:40:10.919Z,10.64
2022-10-22T13:42:58.036Z,10.61
2022-10-22T13:45:31.154Z,10.57
2022-10-22T13:48:28.099Z,10.51
2022-10-22T13:51:01.208Z,10.48
2022-10-22T13:53:49.088Z,10.44
2022-10-22T13:56:31.098Z,10.42
2022-10-22T13:59:25.086Z,10.39
2022-10-22T14:02:18.096Z,10.35
2022-10-22T14:04:51.284Z,10.32
2022-10-22T14:07:38.125Z,10.29
2022-10-22T14:10:37.177Z,10.24
2022-10-22T14:13:27.098Z,10.23
2022-10-22T14:16:07.132Z,10.22
2022-10-22T14:19:02.105Z,10.21
2022-10-22T14:21:49.133Z,10.20
2022-10-22T14:24:25.178Z,10.19
2022-10-22T14:27:12.127Z,10.17
2022-10-22T14:29:46.191Z,10.16
2022-10-22T14:32:35.106Z,10.13
2022-10-22T14:35:15.116Z,10.10
2022-10-22T14:38:09.101Z,10.06
2022-10-22T14:40:57.117Z,10.01
2022-10-22T14:43:33.167Z,9.98
2022-10-22T14:46:22.106Z,9.96
2022-10-22T14:48:55.192Z,9.93
2022-10-22T14:51:42.107Z,9.90
2022-10-22T14:54:22.119Z,9.86
2022-10-22T14:57:13.105Z,9.85
2022-10-22T14:59:46.206Z,9.81
2022-10-22T15:02:33.133Z,9.78
2022-10-22T15:05:09.194Z,9.77
2022-10-22T15:07:56.114Z,9.76
2022-10-22T15:10:36.116Z,9.74
2022-10-22T15:13:30.131Z,9.72
2022-10-22T15:16:19.127Z,9.71
2022-10-22T15:18:53.321Z,9.71
2022-10-22T15:21:40.119Z,9.70
2022-10-22T15:24:13.203Z,9.68
2022-10-22T15:27:00.123Z,9.67
2022-10-22T15:29:33.243Z,9.67
2022-10-22T15:32:20.149Z,9.65
2022-10-22T15:34:53.376Z,9.62
2022-10-22T15:37:40.137Z,9.61
2022-10-22T15:40:14.208Z,9.59
2022-10-22T15:43:01.138Z,9.58
2022-10-22T15:45:34.226Z,9.58
2022-10-22T15:48:21.138Z,9.57
2022-10-22T15:51:01.129Z,9.57
2022-10-22T15:53:56.274Z,9.57
2022-10-22T15:56:50.158Z,9.56
2022-10-22T15:59:37.161Z,9.54
2022-10-22T16:02:17.141Z,9.52
2022-10-22T16:05:11.150Z,9.49
2022-10-22T16:08:00.136Z,9.46
2022-10-22T16:10:33.231Z,9.46
2022-10-22T16:13:20.149Z,9.46
2022-10-22T16:15:53.232Z,9.47
2022-10-22T16:18:40.179Z,9.45
2022-10-22T16:21:20.153Z,9.45
2022-10-22T16:24:08.144Z,9.44
2022-10-22T16:26:49.147Z,9.44
2022-10-22T16:29:36.162Z,9.41
2022-10-22T16:32:09.243Z,9.40
2022-10-22T16:35:03.153Z,9.40
2022-10-22T16:37:50.172Z,9.39
2022-10-22T16:40:23.277Z,9.39
2022-10-22T16:43:12.234Z,9.39
2022-10-22T16:45:45.258Z,9.40
2022-10-22T16:48:32.162Z,9.40
2022-10-22T16:51:06.261Z,9.38
2022-10-22T16:53:53.187Z,9.39
2022-10-22T16:56:26.297Z,9.41
2022-10-22T16:59:13.176Z,9.40
2022-10-22T17:01:46.270Z,9.42
2022-10-22T17:04:33.182Z,9.41
2022-10-22T17:07:06.255Z,9.42
2022-10-22T17:09:53.293Z,9.41
2022-10-22T17:12:26.280Z,9.39
2022-10-22T17:15:13.172Z,9.39
2022-10-22T17:17:48.532Z,9.39
2022-10-22T17:20:35.201Z,9.37
2022-10-22T17:23:08.287Z,9.38
2022-10-22T17:25:55.179Z,9.39
2022-10-22T17:28:35.186Z,9.38
2022-10-22T17:31:26.202Z,9.36
2022-10-22T17:34:08.186Z,9.37
2022-10-22T17:37:05.191Z,9.37
2022-10-22T17:39:52.285Z,9.35
2022-10-22T17:42:25.276Z,9.34
2022-10-22T17:45:15.202Z,9.35
2022-10-22T17:47:48.256Z,9.35
2022-10-22T17:50:35.234Z,9.35
2022-10-22T17:53:08.444Z,9.35
2022-10-22T17:55:55.212Z,9.36
2022-10-22T17:58:28.274Z,9.36
2022-10-22T18:01:27.307Z,9.37
2022-10-22T18:04:05.428Z,9.37
2022-10-22T18:06:53.208Z,9.35
2022-10-22T18:09:33.217Z,9.34
2022-10-22T18:12:20.196Z,9.32
2022-10-22T18:15:00.204Z,9.32
2022-10-22T18:17:57.220Z,9.32
2022-10-22T18:20:44.187Z,9.31
2022-10-22T18:23:18.310Z,9.29
2022-10-22T18:26:05.224Z,9.29
2022-10-22T18:28:38.345Z,9.28
2022-10-22T18:31:30.216Z,9.27
2022-10-22T18:34:11.198Z,9.27
2022-10-22T18:36:58.206Z,9.27
2022-10-22T18:39:31.275Z,9.25
2022-10-22T18:42:18.223Z,9.24
2022-10-22T18:44:51.627Z,9.23
2022-10-22T18:47:38.238Z,9.23
2022-10-22T18:50:18.311Z,9.23
2022-10-22T18:53:12.247Z,9.23
2022-10-22T18:55:59.238Z,9.22
2022-10-22T18:58:32.300Z,9.24
2022-10-22T19:01:22.301Z,9.23
2022-10-22T19:03:56.436Z,9.24
2022-10-22T19:06:45.783Z,9.23
2022-10-22T19:09:28.224Z,9.25
2022-10-22T19:12:22.219Z,9.27
2022-10-22T19:15:16.284Z,9.27
2022-10-22T19:18:03.231Z,9.25
2022-10-22T19:20:36.366Z,9.26
2022-10-22T19:23:23.253Z,9.27
2022-10-22T19:26:11.346Z,9.28
2022-10-22T19:28:58.250Z,9.29
2022-10-22T19:31:33.481Z,9.31
2022-10-22T19:34:13.255Z,9.30
2022-10-22T19:37:00.252Z,9.30
2022-10-22T19:39:47.250Z,9.32
2022-10-22T19:42:20.902Z,9.30
2022-10-22T19:45:07.243Z,9.31
2022-10-22T19:47:48.291Z,9.33
2022-10-22T19:50:42.228Z,9.32
2022-10-22T19:53:29.248Z,9.31
2022-10-22T19:56:13.237Z,9.29
2022-10-22T19:59:00.340Z,9.28
2022-10-22T20:01:40.319Z,9.27
2022-10-22T20:04:34.251Z,9.27
2022-10-22T20:07:29.257Z,9.30
2022-10-22T20:10:16.253Z,9.29
2022-10-22T20:12:49.328Z,9.29
2022-10-22T20:15:38.268Z,9.29
2022-10-22T20:18:18.245Z,9.29
2022-10-22T20:21:12.285Z,9.29
2022-10-22T20:24:01.251Z,9.29
2022-10-22T20:26:44.265Z,9.29
2022-10-22T20:29:31.251Z,9.28
2022-10-22T20:32:08.866Z,9.28
2022-10-22T20:34:55.267Z,9.27
2022-10-22T20:37:28.326Z,9.27
2022-10-22T20:40:15.264Z,9.28
2022-10-22T20:42:49.393Z,9.28
2022-10-22T20:45:36.284Z,9.28
2022-10-22T20:48:17.264Z,9.27
2022-10-22T20:51:14.280Z,9.28
2022-10-22T20:54:01.281Z,9.27
2022-10-22T20:56:35.362Z,9.29
2022-10-22T20:59:22.272Z,9.29
2022-10-22T21:02:05.285Z,9.30
2022-10-22T21:04:52.290Z,9.31
2022-10-22T21:07:32.313Z,9.31
2022-10-22T21:10:19.259Z,9.30
2022-10-22T21:12:55.361Z,9.30
2022-10-22T21:15:43.277Z,9.30
2022-10-22T21:18:16.418Z,9.32
2022-10-22T21:21:03.316Z,9.35
2022-10-22T21:23:36.348Z,9.34
2022-10-22T21:26:25.305Z,9.35
2022-10-22T21:28:58.361Z,9.35
2022-10-22T21:31:47.311Z,9.36
2022-10-22T21:34:20.428Z,9.36
2022-10-22T21:37:07.333Z,9.35
2022-10-22T21:39:42.118Z,9.36
2022-10-22T21:42:29.285Z,9.36
2022-10-22T21:45:13.137Z,9.36
2022-10-22T21:48:01.296Z,9.36
2022-10-22T21:50:45.374Z,9.36
2022-10-22T21:53:39.367Z,9.36
2022-10-22T21:56:29.311Z,9.38
2022-10-22T21:59:09.315Z,9.38
2022-10-22T22:01:56.293Z,9.40
2022-10-22T22:04:29.366Z,9.39
2022-10-22T22:07:16.313Z,9.38
2022-10-22T22:09:49.398Z,9.39
2022-10-22T22:12:36.323Z,9.40
2022-10-22T22:15:09.368Z,9.40
2022-10-22T22:17:56.326Z,9.40
2022-10-22T22:20:29.725Z,9.40
2022-10-22T22:23:16.341Z,9.39
2022-10-22T22:25:49.399Z,9.39
2022-10-22T22:28:39.310Z,9.40
2022-10-22T22:31:25.466Z,9.44
2022-10-22T22:34:19.320Z,9.43
2022-10-22T22:37:00.335Z,9.43
2022-10-22T22:39:54.317Z,9.43
2022-10-22T22:42:48.333Z,9.44
2022-10-22T22:45:36.312Z,9.45
2022-10-22T22:48:10.394Z,9.46
2022-10-22T22:50:58.370Z,9.48
2022-10-22T22:53:31.393Z,9.49
2022-10-22T22:56:22.337Z,9.50
2022-10-22T22:59:03.328Z,9.52
2022-10-22T23:01:57.348Z,9.54
2022-10-22T23:04:44.328Z,9.55
2022-10-22T23:07:25.316Z,9.55
2022-10-22T23:10:19.338Z,9.55
2022-10-22T23:13:06.329Z,9.58
2022-10-22T23:15:39.418Z,9.60
2022-10-22T23:18:26.338Z,9.61
2022-10-22T23:20:59.401Z,9.62
2022-10-22T23:23:50.338Z,9.64
2022-10-22T23:26:29.401Z,9.65
2022-10-22T23:29:28.382Z,9.65
2022-10-22T23:32:09.353Z,9.66
2022-10-22T23:35:04.358Z,9.67
2022-10-22T23:37:58.377Z,9.68
2022-10-22T23:40:45.379Z,9.68
2022-10-22T23:43:18.417Z,9.68
2022-10-22T23:46:05.337Z,9.70
2022-10-22T23:48:45.351Z,9.71
2022-10-22T23:51:32.354Z,9.72
2022-10-22T23:54:09.865Z,9.73
2022-10-22T23:56:56.364Z,9.73
2022-10-22T23:59:29.467Z,9.75
